Time;durP1;ratioP1;P1;durP2;ratioP2;P2;SDS_P1;SDS_P2;PMS_P1;PMS_P2;Temp;Humidity;BMP_temperature;BMP_pressure;BME280_temperature;BME280_humidity;BME280_pressure;Samples;Min_cycle;Max_cycle;Signal;HPM_P1;HPM_P2
2021/01/30 00:02:21;;;;;;;18.70;8.23;;;1.20;99.90;;;;;;4970450;28;20129;-77
2021/01/30 00:04:48;;;;;;;14.43;7.25;;;1.30;99.90;;;;;;4969205;28;20520;-77
2021/01/30 00:07:14;;;;;;;14.93;7.32;;;1.30;99.90;;;;;;4964518;28;20375;-79
2021/01/30 00:09:39;;;;;;;15.10;7.50;;;1.20;99.90;;;;;;4968073;28;20038;-77
2021/01/30 00:12:06;;;;;;;19.42;8.30;;;1.30;99.90;;;;;;4971900;28;20295;-77
2021/01/30 00:14:33;;;;;;;20.88;7.90;;;1.30;99.90;;;;;;4970990;28;20485;-79
2021/01/30 00:17:00;;;;;;;14.30;6.97;;;1.20;99.90;;;;;;4951746;28;20019;-79
2021/01/30 00:19:27;;;;;;;15.00;6.88;;;1.20;99.90;;;;;;4963667;28;20481;-79
2021/01/30 00:21:58;;;;;;;16.52;7.47;;;1.30;99.90;;;;;;4961129;28;20121;-77
2021/01/30 00:24:26;;;;;;;17.35;7.30;;;1.40;99.90;;;;;;4960854;28;20058;-79
2021/01/30 00:27:02;;;;;;;15.35;7.13;;;1.30;99.90;;;;;;4967700;28;20081;-77
2021/01/30 00:29:30;;;;;;;12.32;6.82;;;1.20;99.90;;;;;;4968335;28;20097;-78
2021/01/30 00:31:56;;;;;;;15.75;7.40;;;1.20;99.90;;;;;;4970765;28;20038;-79
2021/01/30 00:34:24;;;;;;;18.13;8.10;;;1.20;99.90;;;;;;4965988;28;20034;-77
2021/01/30 00:36:54;;;;;;;14.65;7.28;;;1.20;99.90;;;;;;4968272;28;20038;-76
2021/01/30 00:39:20;;;;;;;13.57;7.28;;;1.20;99.90;;;;;;4962043;28;20041;-77
2021/01/30 00:41:46;;;;;;;14.15;7.07;;;1.10;99.90;;;;;;4970432;28;20035;-79
2021/01/30 00:44:12;;;;;;;15.25;7.40;;;1.10;99.90;;;;;;4970469;28;20031;-78
2021/01/30 00:46:37;;;;;;;23.27;8.20;;;1.20;99.90;;;;;;4958625;28;20090;-78
2021/01/30 00:49:03;;;;;;;16.77;8.32;;;1.20;99.90;;;;;;4951058;28;20051;-76
2021/01/30 00:51:29;;;;;;;16.63;7.07;;;1.20;99.90;;;;;;4957226;28;20059;-77
2021/01/30 00:53:54;;;;;;;19.00;8.02;;;1.20;99.90;;;;;;4951445;28;20043;-77
2021/01/30 00:56:20;;;;;;;17.02;7.97;;;1.00;99.90;;;;;;4961540;28;20058;-78
2021/01/30 00:58:45;;;;;;;16.63;8.30;;;1.10;99.90;;;;;;4970135;28;20573;-77
2021/01/30 01:01:12;;;;;;;14.25;7.47;;;1.00;99.90;;;;;;4970242;28;20043;-77
2021/01/30 01:03:37;;;;;;;13.90;7.22;;;1.00;99.90;;;;;;4969327;28;20027;-77
2021/01/30 01:06:04;;;;;;;13.82;7.03;;;1.00;99.90;;;;;;4970058;28;20637;-78
2021/01/30 01:08:30;;;;;;;16.63;7.72;;;1.10;99.90;;;;;;4970062;28;20019;-78
2021/01/30 01:10:57;;;;;;;16.65;7.05;;;1.10;99.90;;;;;;4969908;28;20022;-78
2021/01/30 01:13:23;;;;;;;14.68;7.57;;;1.10;99.90;;;;;;4969976;28;20029;-77
2021/01/30 01:15:49;;;;;;;17.98;7.53;;;1.10;99.90;;;;;;4966813;28;20042;-77
2021/01/30 01:18:14;;;;;;;16.27;8.02;;;1.10;99.90;;;;;;4958134;28;20034;-78
2021/01/30 01:20:40;;;;;;;18.35;7.70;;;1.00;99.90;;;;;;4969793;28;20015;-78
2021/01/30 01:23:06;;;;;;;16.13;7.63;;;1.10;99.90;;;;;;4953902;28;20034;-78
2021/01/30 01:25:32;;;;;;;13.45;7.40;;;1.00;99.90;;;;;;4954363;28;20043;-78
2021/01/30 01:27:57;;;;;;;13.15;6.53;;;0.90;99.90;;;;;;4967656;28;20025;-78
2021/01/30 01:30:24;;;;;;;14.98;7.63;;;0.90;99.90;;;;;;4969796;28;20497;-77
2021/01/30 01:32:51;;;;;;;13.63;7.78;;;0.80;99.90;;;;;;4962782;28;20095;-78
2021/01/30 01:35:26;;;;;;;18.30;7.90;;;1.00;99.90;;;;;;4976816;28;20041;-78
2021/01/30 01:37:52;;;;;;;16.73;8.05;;;1.00;99.90;;;;;;4965275;28;20170;-77
2021/01/30 01:40:24;;;;;;;14.98;7.38;;;0.90;99.90;;;;;;4969088;28;20034;-76
2021/01/30 01:43:04;;;;;;;16.77;7.22;;;1.00;99.90;;;;;;4970160;28;20390;-77
2021/01/30 01:45:29;;;;;;;15.90;7.47;;;1.10;99.90;;;;;;4970993;28;20033;-77
2021/01/30 01:47:55;;;;;;;13.93;7.65;;;1.00;99.90;;;;;;4969625;28;20030;-77
2021/01/30 01:50:38;;;;;;;12.48;7.00;;;1.10;99.90;;;;;;4963956;28;20035;-77
2021/01/30 01:53:15;;;;;;;12.77;6.20;;;1.00;99.90;;;;;;4966141;28;20378;-78
2021/01/30 01:55:45;;;;;;;16.63;6.82;;;1.00;99.90;;;;;;4964199;28;20045;-77
2021/01/30 01:58:12;;;;;;;15.45;7.25;;;1.10;99.90;;;;;;4957693;28;20077;-77
2021/01/30 02:00:37;;;;;;;15.90;7.18;;;1.00;99.90;;;;;;4965745;28;20035;-77
2021/01/30 02:03:04;;;;;;;13.73;7.30;;;1.00;99.90;;;;;;4968710;28;20394;-77
2021/01/30 02:05:32;;;;;;;16.30;7.10;;;1.00;99.90;;;;;;4968156;28;20023;-77
2021/01/30 02:08:04;;;;;;;17.00;7.10;;;0.90;99.90;;;;;;4968476;28;20110;-77
2021/01/30 02:10:36;;;;;;;14.80;6.97;;;0.90;99.90;;;;;;4968747;28;20023;-78
2021/01/30 02:13:06;;;;;;;15.35;6.88;;;0.90;99.90;;;;;;4968810;28;20042;-77
2021/01/30 02:15:32;;;;;;;14.35;6.75;;;1.00;99.90;;;;;;4966813;28;20558;-77
2021/01/30 02:18:17;;;;;;;11.52;6.35;;;0.90;99.90;;;;;;4965584;28;20102;-77
2021/01/30 02:21:20;;;;;;;11.88;6.28;;;0.90;99.90;;;;;;4965431;28;20026;-78
2021/01/30 02:24:09;;;;;;;12.25;6.38;;;0.80;99.90;;;;;;4972798;28;20144;-77
2021/01/30 02:27:10;;;;;;;14.82;6.65;;;0.80;99.90;;;;;;4965646;28;20031;-77
2021/01/30 02:30:09;;;;;;;13.32;6.18;;;0.80;99.90;;;;;;4967603;28;20032;-77
2021/01/30 02:32:45;;;;;;;12.65;6.60;;;0.80;99.90;;;;;;4964810;28;20509;-77
2021/01/30 02:35:29;;;;;;;17.50;7.10;;;0.80;99.90;;;;;;4969397;28;20607;-78
2021/01/30 02:38:26;;;;;;;15.23;7.28;;;0.80;99.90;;;;;;4972313;28;20058;-77
2021/01/30 02:40:56;;;;;;;12.88;6.78;;;0.80;99.90;;;;;;4967629;28;20150;-78
2021/01/30 02:43:28;;;;;;;12.00;6.50;;;0.90;99.90;;;;;;4970176;28;20035;-77
2021/01/30 02:45:58;;;;;;;13.27;6.88;;;0.90;99.90;;;;;;4964292;28;20773;-77
2021/01/30 02:48:30;;;;;;;19.35;7.75;;;0.90;99.90;;;;;;4967272;28;20204;-77
2021/01/30 02:51:00;;;;;;;11.88;6.43;;;0.90;99.90;;;;;;4957971;28;20035;-77
2021/01/30 02:53:29;;;;;;;10.35;6.25;;;1.00;99.90;;;;;;4971370;28;20117;-77
2021/01/30 02:55:59;;;;;;;12.95;6.35;;;0.90;99.90;;;;;;4971831;28;20061;-77
2021/01/30 02:58:31;;;;;;;13.63;5.93;;;0.90;99.90;;;;;;4966276;28;20038;-77
2021/01/30 03:00:57;;;;;;;10.43;5.65;;;0.90;99.90;;;;;;4968819;28;20066;-76
2021/01/30 03:03:24;;;;;;;12.88;5.90;;;0.90;99.90;;;;;;4969500;28;20023;-77
2021/01/30 03:05:52;;;;;;;11.55;5.57;;;0.90;99.90;;;;;;4956558;28;20019;-79
2021/01/30 03:08:34;;;;;;;11.25;5.95;;;0.90;99.90;;;;;;4970996;28;20500;-79
2021/01/30 03:11:20;;;;;;;12.57;6.68;;;0.80;99.90;;;;;;4963704;28;20346;-79
2021/01/30 03:13:54;;;;;;;12.00;6.18;;;0.80;99.90;;;;;;4970192;28;20390;-79
2021/01/30 03:16:32;;;;;;;12.07;6.30;;;0.80;99.90;;;;;;4971757;28;20035;-79
2021/01/30 03:19:13;;;;;;;14.35;6.18;;;0.70;99.90;;;;;;4970929;28;20035;-79
2021/01/30 03:21:41;;;;;;;12.45;6.30;;;0.80;99.90;;;;;;4971263;28;20058;-79
2021/01/30 03:24:07;;;;;;;12.20;6.93;;;0.80;99.90;;;;;;4969913;28;20117;-79
2021/01/30 03:26:39;;;;;;;11.57;6.22;;;0.90;99.90;;;;;;4965205;28;20111;-78
2021/01/30 03:29:04;;;;;;;11.70;6.13;;;0.90;99.90;;;;;;4969541;28;20035;-79
2021/01/30 03:31:30;;;;;;;10.45;6.25;;;0.90;99.90;;;;;;4968095;28;20111;-79
2021/01/30 03:33:55;;;;;;;12.32;6.22;;;0.90;99.90;;;;;;4971682;28;20398;-79
2021/01/30 03:36:21;;;;;;;11.95;5.88;;;1.00;99.90;;;;;;4973504;28;20117;-79
2021/01/30 03:38:46;;;;;;;13.88;6.57;;;0.90;99.90;;;;;;4968219;28;20042;-79
2021/01/30 03:41:12;;;;;;;13.88;6.43;;;0.90;99.90;;;;;;4970877;28;20089;-79
2021/01/30 03:43:37;;;;;;;16.80;6.88;;;1.00;99.90;;;;;;4971291;28;20081;-79
2021/01/30 03:46:03;;;;;;;14.77;7.03;;;1.00;99.90;;;;;;4968274;28;20034;-79
2021/01/30 03:48:28;;;;;;;9.98;6.03;;;0.90;99.90;;;;;;4971264;28;20110;-79
2021/01/30 03:50:54;;;;;;;12.43;6.47;;;0.90;99.90;;;;;;4955535;28;20031;-79
2021/01/30 03:53:19;;;;;;;12.85;6.20;;;0.90;99.90;;;;;;4970538;28;20039;-79
2021/01/30 03:55:45;;;;;;;12.70;6.47;;;0.90;99.90;;;;;;4962805;28;20118;-79
2021/01/30 03:58:10;;;;;;;10.85;6.13;;;0.90;99.90;;;;;;4968833;28;20038;-79
2021/01/30 04:00:36;;;;;;;16.90;7.35;;;0.90;99.90;;;;;;4964174;28;20087;-79
2021/01/30 04:03:02;;;;;;;13.93;6.88;;;1.00;99.90;;;;;;4969216;28;20063;-79
2021/01/30 04:05:28;;;;;;;13.15;6.50;;;1.10;99.90;;;;;;4965946;28;20069;-79
2021/01/30 04:07:59;;;;;;;14.02;6.68;;;1.10;99.90;;;;;;4959497;28;20063;-79
2021/01/30 04:10:30;;;;;;;12.07;6.55;;;1.10;99.90;;;;;;4965466;28;20042;-79
2021/01/30 04:12:57;;;;;;;12.07;6.68;;;1.10;99.90;;;;;;4969406;28;20038;-79
2021/01/30 04:15:35;;;;;;;13.48;6.90;;;1.10;99.90;;;;;;4968135;28;20038;-79
2021/01/30 04:18:01;;;;;;;15.48;6.90;;;1.10;99.90;;;;;;4966724;28;20062;-79
2021/01/30 04:20:26;;;;;;;14.02;7.00;;;1.00;99.90;;;;;;4970615;28;20039;-78
2021/01/30 04:22:54;;;;;;;15.95;7.07;;;1.00;99.90;;;;;;4969819;28;20497;-79
2021/01/30 04:25:22;;;;;;;13.93;6.43;;;1.10;99.90;;;;;;4969206;28;20054;-79
2021/01/30 04:27:49;;;;;;;17.27;7.57;;;1.10;99.90;;;;;;4957251;28;20031;-79
2021/01/30 04:30:18;;;;;;;15.68;7.20;;;1.00;99.90;;;;;;4970102;28;20030;-79
2021/01/30 04:32:44;;;;;;;15.80;7.60;;;1.10;99.90;;;;;;4968733;28;20049;-79
2021/01/30 04:35:10;;;;;;;15.32;8.05;;;1.10;99.90;;;;;;4968815;28;20038;-79
2021/01/30 04:37:36;;;;;;;15.00;7.25;;;1.10;99.90;;;;;;4969191;28;20046;-79
2021/01/30 04:40:04;;;;;;;13.88;7.30;;;1.10;99.90;;;;;;4970062;28;20042;-78
2021/01/30 04:42:39;;;;;;;14.98;7.47;;;1.10;99.90;;;;;;4966932;28;20031;-79
2021/01/30 04:45:19;;;;;;;15.60;7.95;;;1.00;99.90;;;;;;4969358;28;20085;-79
2021/01/30 04:47:55;;;;;;;15.38;7.45;;;1.10;99.90;;;;;;4968106;28;20062;-79
2021/01/30 04:50:37;;;;;;;14.70;6.53;;;1.10;99.90;;;;;;4970482;28;20035;-79
2021/01/30 04:53:21;;;;;;;14.18;8.02;;;1.20;99.90;;;;;;4961630;28;20031;-78
2021/01/30 04:56:11;;;;;;;15.40;7.93;;;1.20;99.90;;;;;;4963482;28;20074;-79
2021/01/30 04:59:19;;;;;;;17.45;8.23;;;1.20;99.90;;;;;;4959920;28;20401;-79
2021/01/30 05:02:01;;;;;;;15.38;7.93;;;1.10;99.90;;;;;;4967197;28;20077;-78
2021/01/30 05:04:30;;;;;;;20.85;8.45;;;1.10;99.90;;;;;;4968965;28;20391;-78
2021/01/30 05:07:23;;;;;;;20.08;8.57;;;1.10;99.90;;;;;;4966737;28;20421;-78
2021/01/30 05:10:00;;;;;;;22.52;9.57;;;1.10;99.90;;;;;;4959259;28;20035;-78
2021/01/30 05:12:31;;;;;;;19.08;9.35;;;1.10;99.90;;;;;;4967921;28;20576;-78
2021/01/30 05:15:07;;;;;;;21.20;9.70;;;1.10;99.90;;;;;;4968120;28;20050;-79
2021/01/30 05:17:44;;;;;;;20.58;9.52;;;1.20;99.90;;;;;;4970069;28;20031;-78
2021/01/30 05:20:11;;;;;;;19.50;9.40;;;1.20;99.90;;;;;;4966945;28;20035;-79
2021/01/30 05:22:43;;;;;;;19.88;9.77;;;1.20;99.90;;;;;;4969611;28;20027;-78
2021/01/30 05:25:12;;;;;;;21.38;9.38;;;1.20;99.90;;;;;;4968159;28;20509;-79
2021/01/30 05:28:04;;;;;;;16.10;8.75;;;1.20;99.90;;;;;;4967407;28;20118;-79
2021/01/30 05:30:57;;;;;;;19.85;8.75;;;1.20;99.90;;;;;;4958587;28;20037;-79
2021/01/30 05:33:56;;;;;;;20.17;9.65;;;1.10;99.90;;;;;;4958949;28;20039;-79
2021/01/30 05:36:29;;;;;;;18.15;9.10;;;1.20;99.90;;;;;;4965427;28;20046;-79
2021/01/30 05:39:16;;;;;;;21.15;10.13;;;1.20;99.90;;;;;;4964997;28;20031;-78
2021/01/30 05:41:54;;;;;;;22.23;9.55;;;1.20;99.90;;;;;;4968993;28;20151;-78
2021/01/30 05:44:43;;;;;;;22.40;9.40;;;1.20;99.90;;;;;;4964407;28;20101;-79
2021/01/30 05:47:17;;;;;;;22.17;10.13;;;1.20;99.90;;;;;;4960180;28;20053;-79
2021/01/30 05:50:02;;;;;;;21.73;9.55;;;1.20;99.90;;;;;;4967818;28;20133;-78
2021/01/30 05:52:30;;;;;;;23.95;10.02;;;1.20;99.90;;;;;;4964714;28;20030;-80
2021/01/30 05:54:59;;;;;;;23.40;10.38;;;1.20;99.90;;;;;;4956571;28;20070;-78
2021/01/30 05:57:24;;;;;;;24.50;10.48;;;1.20;99.90;;;;;;4963183;28;20054;-79
2021/01/30 05:59:56;;;;;;;26.20;10.50;;;1.20;99.90;;;;;;4968319;28;20050;-79
2021/01/30 06:02:25;;;;;;;22.80;10.40;;;1.20;99.90;;;;;;4968843;28;20481;-79
2021/01/30 06:04:51;;;;;;;25.13;10.57;;;1.20;99.90;;;;;;4958672;28;20031;-78
2021/01/30 06:07:22;;;;;;;22.13;10.45;;;1.20;99.90;;;;;;4965291;28;20054;-79
2021/01/30 06:09:48;;;;;;;;;;;1.20;99.90;;;;;;4963071;28;20433;-79
2021/01/30 06:12:38;;;;;;;25.63;9.68;;;1.20;99.90;;;;;;4968577;28;19910;-79
2021/01/30 06:15:22;;;;;;;22.20;10.43;;;1.10;99.90;;;;;;4967606;28;20114;-78
2021/01/30 06:17:48;;;;;;;17.73;9.05;;;1.10;99.90;;;;;;4967435;28;20523;-79
2021/01/30 06:20:18;;;;;;;24.45;10.45;;;1.10;99.90;;;;;;4968093;28;20043;-78
2021/01/30 06:22:45;;;;;;;24.75;10.65;;;1.10;99.90;;;;;;4954591;28;20486;-79
2021/01/30 06:25:24;;;;;;;23.27;9.85;;;1.10;99.90;;;;;;4966525;28;20154;-79
2021/01/30 06:27:52;;;;;;;21.15;10.07;;;1.10;99.90;;;;;;4964562;28;20035;-79
2021/01/30 06:30:39;;;;;;;19.98;9.45;;;1.10;99.90;;;;;;4968584;28;20121;-79
2021/01/30 06:33:22;;;;;;;21.30;9.70;;;1.20;99.90;;;;;;4967543;28;20031;-78
2021/01/30 06:35:48;;;;;;;20.92;8.55;;;1.20;99.90;;;;;;4964898;28;20178;-78
2021/01/30 06:38:31;;;;;;;18.58;8.55;;;1.20;99.90;;;;;;4965084;28;20544;-79
2021/01/30 06:41:00;;;;;;;18.92;7.85;;;1.30;99.90;;;;;;4968199;28;20058;-78
2021/01/30 06:43:49;;;;;;;21.40;8.48;;;1.20;99.90;;;;;;4967134;28;20508;-79
2021/01/30 06:46:20;;;;;;;15.07;8.25;;;1.20;99.90;;;;;;4966252;28;20030;-79
2021/01/30 06:48:55;;;;;;;17.05;8.48;;;1.20;99.90;;;;;;4969065;28;20027;-78
2021/01/30 06:51:34;;;;;;;16.20;7.45;;;1.30;99.90;;;;;;4968631;28;20038;-78
2021/01/30 06:54:26;;;;;;;14.57;6.85;;;1.30;99.90;;;;;;4965762;28;20065;-79
2021/01/30 06:57:04;;;;;;;13.57;6.53;;;1.20;99.90;;;;;;4972305;28;20039;-78
2021/01/30 06:59:33;;;;;;;14.43;7.22;;;1.40;99.90;;;;;;4969687;28;20027;-79
2021/01/30 07:02:00;;;;;;;12.50;7.03;;;1.40;99.90;;;;;;4972323;28;20026;-80
2021/01/30 07:04:50;;;;;;;14.23;6.50;;;1.40;99.90;;;;;;4973413;28;20386;-79
2021/01/30 07:07:45;;;;;;;16.58;6.85;;;1.40;99.90;;;;;;4964094;28;20023;-79
2021/01/30 07:10:43;;;;;;;13.27;7.00;;;1.50;99.90;;;;;;4966796;28;20038;-79
2021/01/30 07:13:50;;;;;;;10.95;6.30;;;1.50;99.90;;;;;;4967655;28;20038;-79
2021/01/30 07:16:40;;;;;;;11.13;5.68;;;1.40;99.90;;;;;;4970861;28;20030;-78
2021/01/30 07:19:29;;;;;;;11.75;6.18;;;1.40;99.90;;;;;;4969377;28;20039;-79
2021/01/30 07:22:02;;;;;;;9.55;5.68;;;1.40;99.90;;;;;;4971045;28;20027;-79
2021/01/30 07:24:42;;;;;;;10.80;5.82;;;1.50;99.90;;;;;;4968319;28;20137;-79
2021/01/30 07:27:24;;;;;;;16.60;6.95;;;1.50;99.90;;;;;;4971270;28;20034;-79
2021/01/30 07:30:00;;;;;;;11.43;6.18;;;1.50;99.90;;;;;;4970297;28;20110;-79
2021/01/30 07:32:35;;;;;;;12.15;6.10;;;1.50;99.90;;;;;;4965231;28;20517;-79
2021/01/30 07:35:32;;;;;;;14.95;7.47;;;1.60;99.90;;;;;;4969320;28;20085;-78
2021/01/30 07:38:11;;;;;;;11.43;6.68;;;1.60;99.90;;;;;;4971800;28;20577;-79
2021/01/30 07:40:59;;;;;;;13.38;6.10;;;1.60;99.90;;;;;;4968765;28;20039;-79
2021/01/30 07:43:36;;;;;;;12.85;6.40;;;1.70;99.90;;;;;;4962691;28;20032;-79
2021/01/30 07:46:18;;;;;;;12.55;6.72;;;1.70;99.90;;;;;;4970085;28;20034;-79
2021/01/30 07:48:57;;;;;;;11.57;6.22;;;1.70;99.90;;;;;;4968296;28;20077;-79
2021/01/30 07:51:28;;;;;;;12.27;6.07;;;1.80;99.90;;;;;;4967181;28;20043;-79
2021/01/30 07:53:53;;;;;;;14.30;7.10;;;1.80;99.90;;;;;;4960362;28;20061;-79
2021/01/30 07:56:19;;;;;;;13.00;6.53;;;1.80;99.90;;;;;;4962401;28;20506;-79
2021/01/30 07:59:20;;;;;;;11.43;6.57;;;1.80;99.90;;;;;;4968995;28;20444;-79
2021/01/30 08:02:04;;;;;;;;;;;1.90;99.90;;;;;;4948592;28;20047;-79
2021/01/30 08:04:52;;;;;;;11.50;6.00;;;1.90;99.90;;;;;;4966042;28;19914;-79
2021/01/30 08:07:39;;;;;;;12.40;5.57;;;1.90;99.90;;;;;;4957273;28;20035;-79
2021/01/30 08:10:20;;;;;;;9.63;5.85;;;1.90;99.90;;;;;;4969352;28;20134;-79
2021/01/30 08:13:02;;;;;;;10.60;5.90;;;1.90;99.90;;;;;;4969686;28;20062;-79
2021/01/30 08:15:35;;;;;;;14.18;6.32;;;2.00;99.90;;;;;;4970099;28;20031;-79
2021/01/30 08:18:28;;;;;;;13.20;6.50;;;2.00;99.90;;;;;;4970406;28;20052;-79
2021/01/30 08:21:02;;;;;;;16.88;6.25;;;2.00;99.90;;;;;;4966092;28;20035;-79
2021/01/30 08:23:55;;;;;;;12.98;6.63;;;2.10;99.90;;;;;;4965819;28;20482;-78
2021/01/30 08:26:31;;;;;;;11.77;6.85;;;2.20;99.90;;;;;;4967751;28;20474;-80
2021/01/30 08:29:16;;;;;;;11.75;6.70;;;2.20;99.90;;;;;;4968725;28;20400;-80
2021/01/30 08:32:17;;;;;;;12.50;6.30;;;2.20;99.90;;;;;;4967952;28;20065;-80
2021/01/30 08:34:43;;;;;;;;;;;2.20;99.90;;;;;;4962973;28;20039;-79
2021/01/30 08:37:11;;;;;;;12.48;6.72;;;2.30;99.90;;;;;;4968930;28;19910;-80
2021/01/30 08:39:57;;;;;;;10.38;6.55;;;2.40;99.90;;;;;;4969100;28;20051;-80
2021/01/30 08:42:23;;;;;;;12.13;6.32;;;2.40;99.90;;;;;;4970390;28;20066;-80
2021/01/30 08:44:49;;;;;;;10.32;5.85;;;2.60;99.90;;;;;;4969182;28;20035;-80
2021/01/30 08:47:18;;;;;;;9.30;5.60;;;2.60;99.90;;;;;;4968588;28;20031;-79
2021/01/30 08:49:57;;;;;;;10.80;5.63;;;2.70;99.90;;;;;;4962203;28;20042;-80
2021/01/30 08:52:35;;;;;;;14.40;5.88;;;2.70;99.90;;;;;;4965901;28;20528;-80
2021/01/30 08:55:22;;;;;;;16.15;6.85;;;2.70;99.90;;;;;;4957877;28;20028;-80
2021/01/30 08:57:47;;;;;;;12.25;6.50;;;2.60;99.90;;;;;;4959715;28;20393;-82
2021/01/30 09:00:36;;;;;;;18.98;8.40;;;2.70;99.90;;;;;;4964137;28;20035;-80
2021/01/30 09:03:05;;;;;;;11.70;6.32;;;2.70;99.90;;;;;;4967722;28;20450;-76
2021/01/30 09:05:35;;;;;;;11.13;6.65;;;2.80;99.90;;;;;;4970157;28;20030;-77
2021/01/30 09:08:10;;;;;;;9.43;5.95;;;2.70;99.90;;;;;;4965734;28;20030;-73
2021/01/30 09:10:38;;;;;;;9.13;5.13;;;2.70;99.90;;;;;;4964557;28;20039;-73
2021/01/30 09:13:18;;;;;;;9.02;5.53;;;2.60;99.90;;;;;;4964563;28;20093;-77
2021/01/30 09:15:43;;;;;;;10.40;5.53;;;2.50;99.90;;;;;;4966119;28;20031;-73
2021/01/30 09:18:36;;;;;;;8.88;4.63;;;2.70;99.90;;;;;;4961962;28;20031;-72
2021/01/30 09:21:10;;;;;;;9.48;5.13;;;2.60;99.90;;;;;;4962136;28;20093;-72
2021/01/30 09:23:59;;;;;;;8.70;5.25;;;2.70;99.90;;;;;;4964795;28;20490;-73
2021/01/30 09:26:49;;;;;;;9.02;4.22;;;2.80;99.90;;;;;;4967886;28;20062;-73
2021/01/30 09:29:20;;;;;;;7.60;4.32;;;2.80;99.90;;;;;;4964883;28;20113;-72
2021/01/30 09:31:46;;;;;;;6.70;4.68;;;2.80;99.90;;;;;;4956167;28;20034;-75
2021/01/30 09:34:17;;;;;;;6.13;4.22;;;2.90;99.90;;;;;;4965469;28;20034;-74
2021/01/30 09:36:48;;;;;;;9.40;4.65;;;2.90;99.90;;;;;;4969415;28;20029;-74
2021/01/30 09:39:32;;;;;;;7.30;4.70;;;3.10;99.90;;;;;;4969653;28;20093;-75
2021/01/30 09:42:13;;;;;;;9.77;4.55;;;3.10;99.90;;;;;;4967734;28;20030;-75
2021/01/30 09:44:38;;;;;;;5.80;4.00;;;3.10;99.90;;;;;;4977841;28;20033;-75
2021/01/30 09:47:17;;;;;;;7.90;4.70;;;3.20;99.90;;;;;;4957829;28;20043;-74
2021/01/30 09:50:01;;;;;;;6.60;4.32;;;3.20;99.90;;;;;;4968305;28;20038;-75
2021/01/30 09:52:27;;;;;;;6.25;4.00;;;3.20;99.90;;;;;;4958405;28;20035;-74
2021/01/30 09:55:09;;;;;;;6.20;3.83;;;3.30;99.90;;;;;;4963289;28;20027;-73
2021/01/30 09:57:37;;;;;;;5.35;3.75;;;3.20;99.90;;;;;;4959232;28;20027;-74
2021/01/30 10:00:12;;;;;;;5.32;3.45;;;3.20;99.90;;;;;;4967480;28;20489;-74
2021/01/30 10:02:38;;;;;;;6.05;3.85;;;3.10;99.90;;;;;;4963310;28;20054;-74
2021/01/30 10:05:24;;;;;;;4.97;3.50;;;3.40;99.90;;;;;;4961956;28;20027;-74
2021/01/30 10:07:50;;;;;;;6.82;3.85;;;3.40;99.90;;;;;;4964369;28;20046;-83
2021/01/30 10:10:30;;;;;;;5.95;3.58;;;3.50;99.90;;;;;;4961796;28;20031;-82
2021/01/30 10:12:58;;;;;;;6.82;3.70;;;3.50;99.90;;;;;;4962375;28;20254;-77
2021/01/30 10:15:32;;;;;;;5.45;3.20;;;3.50;99.90;;;;;;4970424;28;20034;-79
2021/01/30 10:18:12;;;;;;;5.63;3.60;;;3.50;99.90;;;;;;4966482;28;20174;-80
2021/01/30 10:20:51;;;;;;;5.85;3.53;;;3.50;99.90;;;;;;4966799;28;20074;-76
2021/01/30 10:23:40;;;;;;;6.50;3.35;;;3.60;99.90;;;;;;4958783;28;20023;-78
2021/01/30 10:26:12;;;;;;;5.03;3.35;;;3.70;99.90;;;;;;4963977;28;20167;-74
2021/01/30 10:29:01;;;;;;;6.90;3.90;;;3.70;99.90;;;;;;4964062;28;20027;-81
2021/01/30 10:31:40;;;;;;;7.25;3.60;;;3.60;99.90;;;;;;4974186;28;20113;-79
2021/01/30 10:34:36;;;;;;;8.85;4.15;;;3.50;99.90;;;;;;4969456;28;20088;-78
2021/01/30 10:37:12;;;;;;;7.85;4.45;;;3.60;99.90;;;;;;4952782;28;20039;-79
2021/01/30 10:39:44;;;;;;;7.13;3.97;;;3.50;99.90;;;;;;4955638;28;20032;-78
2021/01/30 10:42:19;;;;;;;5.07;3.47;;;3.60;99.90;;;;;;4973023;28;20023;-78
2021/01/30 10:44:46;;;;;;;5.70;3.30;;;3.50;99.90;;;;;;4972499;28;20477;-79
2021/01/30 10:47:13;;;;;;;4.70;3.30;;;3.60;99.90;;;;;;4960212;28;20089;-78
2021/01/30 10:49:39;;;;;;;6.40;3.78;;;3.60;99.90;;;;;;4953472;28;20031;-79
2021/01/30 10:52:23;;;;;;;4.38;2.92;;;3.70;99.90;;;;;;4970158;28;20474;-79
2021/01/30 10:54:49;;;;;;;4.07;2.90;;;3.80;99.90;;;;;;4972586;28;20023;-79
2021/01/30 10:57:17;;;;;;;4.70;2.97;;;3.80;99.90;;;;;;4967144;28;20086;-79
2021/01/30 10:59:48;;;;;;;5.47;2.80;;;3.80;99.90;;;;;;4972611;28;20061;-79
2021/01/30 11:02:27;;;;;;;3.53;2.57;;;3.90;99.90;;;;;;4971964;28;20449;-80
2021/01/30 11:05:27;;;;;;;4.95;2.70;;;4.10;99.90;;;;;;4972405;28;20022;-79
2021/01/30 11:07:58;;;;;;;3.40;2.30;;;4.10;99.90;;;;;;4971963;28;20039;-79
2021/01/30 11:10:43;;;;;;;2.93;1.90;;;4.10;99.90;;;;;;4972253;28;20113;-79
2021/01/30 11:13:20;;;;;;;2.70;1.90;;;4.00;99.90;;;;;;4971819;28;20278;-80
2021/01/30 11:15:47;;;;;;;2.38;2.00;;;3.90;99.90;;;;;;4972364;28;20466;-78
2021/01/30 11:18:26;;;;;;;2.15;1.85;;;3.90;99.90;;;;;;4971447;28;20445;-81
2021/01/30 11:20:51;;;;;;;3.00;1.83;;;4.00;99.90;;;;;;4972217;28;20487;-81
2021/01/30 11:23:42;;;;;;;2.13;1.92;;;4.20;99.90;;;;;;4965403;28;20035;-78
2021/01/30 11:26:11;;;;;;;3.22;2.10;;;4.30;99.90;;;;;;4965877;28;20379;-80
2021/01/30 11:28:36;;;;;;;2.88;2.17;;;4.30;99.90;;;;;;4953182;28;20035;-80
2021/01/30 11:31:03;;;;;;;3.22;2.00;;;4.40;99.90;;;;;;4959794;28;20030;-78
2021/01/30 11:33:29;;;;;;;3.30;2.13;;;4.30;99.90;;;;;;4952478;28;20054;-80
2021/01/30 11:35:55;;;;;;;2.78;1.85;;;4.30;99.90;;;;;;4981920;28;20037;-80
2021/01/30 11:38:26;;;;;;;3.10;2.15;;;4.70;99.90;;;;;;4971296;28;20110;-82
2021/01/30 11:40:54;;;;;;;2.20;1.80;;;5.20;99.90;;;;;;4960430;28;20053;-81
2021/01/30 11:43:20;;;;;;;2.83;1.55;;;5.10;99.90;;;;;;4971183;28;20027;-79
2021/01/30 11:45:47;;;;;;;2.63;1.67;;;4.90;99.40;;;;;;4971397;28;20493;-78
2021/01/30 11:48:13;;;;;;;2.42;1.55;;;5.50;99.90;;;;;;4970562;28;20157;-79
2021/01/30 11:50:39;;;;;;;2.08;1.73;;;6.30;96.20;;;;;;4971284;28;20037;-78
2021/01/30 11:53:10;;;;;;;2.35;1.50;;;6.90;94.80;;;;;;4971765;28;20104;-79
2021/01/30 11:55:37;;;;;;;2.42;1.67;;;7.20;92.50;;;;;;4957001;28;20063;-78
2021/01/30 11:58:04;;;;;;;1.88;1.58;;;7.70;90.90;;;;;;4968402;28;20027;-78
2021/01/30 12:00:29;;;;;;;2.92;2.08;;;7.50;86.30;;;;;;4956917;28;20038;-78
2021/01/30 12:02:55;;;;;;;3.25;1.90;;;7.30;89.40;;;;;;4970238;28;20023;-79
2021/01/30 12:05:20;;;;;;;2.63;1.80;;;6.90;90.30;;;;;;4971729;28;20081;-79
2021/01/30 12:07:46;;;;;;;2.08;1.88;;;6.50;90.90;;;;;;4971648;28;20026;-78
2021/01/30 12:10:13;;;;;;;2.90;2.13;;;6.00;91.30;;;;;;4963892;28;20042;-79
2021/01/30 12:12:39;;;;;;;2.67;2.05;;;5.40;92.50;;;;;;4970910;28;20039;-79
2021/01/30 12:15:07;;;;;;;2.88;2.08;;;5.20;95.30;;;;;;4953738;28;20020;-79
2021/01/30 12:17:45;;;;;;;2.63;1.90;;;5.90;94.50;;;;;;4970446;28;20062;-79
2021/01/30 12:20:15;;;;;;;2.60;1.80;;;6.80;93.00;;;;;;4964403;28;20078;-79
2021/01/30 12:22:40;;;;;;;2.20;1.60;;;7.60;87.60;;;;;;4953142;28;20027;-79
2021/01/30 12:25:08;;;;;;;2.00;1.70;;;8.10;84.30;;;;;;4968680;28;20395;-80
2021/01/30 12:27:35;;;;;;;1.90;1.50;;;8.10;83.30;;;;;;4969116;28;20035;-79
2021/01/30 12:30:01;;;;;;;2.20;1.75;;;7.40;80.30;;;;;;4971373;28;20074;-79
2021/01/30 12:32:26;;;;;;;2.13;1.58;;;6.70;84.60;;;;;;4970463;28;20026;-79
2021/01/30 12:34:52;;;;;;;1.95;1.70;;;6.40;85.70;;;;;;4972650;28;20018;-79
2021/01/30 12:37:17;;;;;;;3.38;1.73;;;6.20;86.90;;;;;;4956163;28;20047;-79
2021/01/30 12:39:43;;;;;;;2.08;1.48;;;5.80;89.50;;;;;;4951185;28;20031;-79
2021/01/30 12:42:09;;;;;;;2.45;1.27;;;6.00;89.50;;;;;;4963762;28;20031;-79
2021/01/30 12:44:35;;;;;;;1.73;1.50;;;5.70;88.80;;;;;;4962465;28;20489;-79
2021/01/30 12:47:00;;;;;;;1.83;1.30;;;5.30;90.30;;;;;;4963544;28;20033;-79
2021/01/30 12:49:26;;;;;;;1.73;1.40;;;5.10;90.60;;;;;;4953589;28;20035;-79
2021/01/30 12:51:51;;;;;;;2.50;1.80;;;5.00;90.50;;;;;;4970230;28;20030;-79
2021/01/30 12:54:18;;;;;;;2.42;1.80;;;4.90;91.80;;;;;;4959029;28;20031;-79
2021/01/30 12:56:45;;;;;;;2.50;1.70;;;4.80;92.30;;;;;;4970066;28;20393;-79
2021/01/30 12:59:12;;;;;;;2.67;1.85;;;4.60;92.30;;;;;;4969432;28;20026;-79
2021/01/30 13:01:37;;;;;;;2.92;1.92;;;4.30;93.20;;;;;;4969562;28;20035;-79
2021/01/30 13:04:03;;;;;;;2.00;1.77;;;4.30;93.30;;;;;;4966538;28;20031;-79
2021/01/30 13:06:29;;;;;;;3.05;1.90;;;4.20;94.10;;;;;;4964641;28;20490;-79
2021/01/30 13:08:55;;;;;;;4.97;2.42;;;4.10;94.20;;;;;;4965645;28;20058;-76
2021/01/30 13:11:20;;;;;;;3.42;2.42;;;4.10;94.20;;;;;;4966487;28;20101;-77
2021/01/30 13:13:46;;;;;;;6.43;2.70;;;4.10;94.90;;;;;;4959030;28;20035;-78
2021/01/30 13:16:12;;;;;;;5.72;2.40;;;4.00;95.00;;;;;;4962366;28;20489;-81
2021/01/30 13:18:38;;;;;;;3.40;2.15;;;4.40;95.30;;;;;;4968246;28;20062;-75
2021/01/30 13:21:06;;;;;;;2.42;1.63;;;5.30;94.10;;;;;;4969224;28;20035;-84
2021/01/30 13:23:36;;;;;;;4.10;2.10;;;5.90;90.80;;;;;;4966391;28;20022;-86